マガダン の空港の天気 - METARとTAF

マガダン・ソコル空港 ( UHMM / GDX ) - ロシア マガダン
飛行場実況気象(Metar)
観測時間04/22 03:00 MAGT (04/21 16:00 UTC)
風向・風速静穏 0m/s
視程3500m
天気現象弱いしゅう雪 もや
全天の4割程度の雲 雲底高度 270m
全天を覆う雲 雲底高度 610m
気温0℃
湿度100%
気圧1020hPa
METARUHMM 211600Z 00000MPS 3500 -SHSN BR SCT009 OVC020CB 00/M00 Q1020 RMK QFE750
過去の天気等 Google飛行場航空写真 Wunderground天気予報

過去48時間のMETAR

飛行場予報(TAF)
発表時間: 4/22 03:07 MAGT (4/21 16:07 UTC)
予報対象時間: 22日3時 MAGT ~ 23日8時 MAGT
風向・風速西南西 3m/s
視程4000m
天気現象弱いしゅう雪 もや
全天の4割程度の雲 雲底高度 300m
全天を覆う積乱雲 雲底高度 610m
22日3時 MAGT ~ 22日10時 MAGT に一時的に
視程2000m
天気現象弱いしゅう雪 もや
全天を覆う雲 鉛直視程 180m
22日10時 MAGT から
風向・風速東南東 3m/s 瞬間風速 8m/s
視程10km以上
天気現象弱いしゅう雪雨
全天の8割程度の積乱雲 雲底高度 610m
全天を覆う雲 雲底高度 2130m
22日10時 MAGT ~ 22日20時 MAGT に一時的に
風向・風速西南西 3m/s 瞬間風速 9m/s
視程3100m
天気現象弱いしゅう雪雨
全天を覆う雲 鉛直視程 340m
22日20時 MAGT から
風向・風速東南東 4m/s 瞬間風速 10m/s
視程3100m
天気現象弱いしゅう雪 もや
全天の8割程度の積乱雲 雲底高度 340m
全天を覆う雲 雲底高度 610m
22日20時 MAGT ~ 23日8時 MAGT に一時的に
視程1000m
天気現象しゅう雪 もや
全天を覆う雲 鉛直視程 150m
TAF AMD UHMM 211607Z 2116/2221 25003MPS 4000 -SHSN BR SCT010 OVC020CB
TEMPO 2116/2123 2000 -SHSN BR VV006
FM212300 12003G08MPS 9999 -SHSNRA BKN020CB OVC070
TEMPO 2123/2209 25003G09MPS 3100 -SHSNRA VV011
FM220900 12004G10MPS 3100 -SHSN BR BKN011CB OVC020
TEMPO 2209/2221 1000 SHSN BR VV005